createdAt,value
2018-05-14T00:00:37.469Z,13.30
2018-05-14T00:02:40.830Z,13.30
2018-05-14T00:04:44.981Z,13.20
2018-05-14T00:06:48.348Z,13.20
2018-05-14T00:08:52.438Z,13.20
2018-05-14T00:10:55.873Z,13.20
2018-05-14T00:12:59.199Z,13.10
2018-05-14T00:15:02.568Z,13.20
2018-05-14T00:17:05.880Z,13.20
2018-05-14T00:19:09.254Z,13.30
2018-05-14T00:21:12.689Z,13.30
2018-05-14T00:23:17.044Z,13.30
2018-05-14T00:25:20.436Z,13.30
2018-05-14T00:27:23.873Z,13.30
2018-05-14T00:29:27.224Z,13.30
2018-05-14T00:31:30.562Z,13.20
2018-05-14T00:33:34.026Z,13.40
2018-05-14T00:35:38.183Z,13.30
2018-05-14T00:37:42.975Z,13.30
2018-05-14T00:39:46.324Z,13.30
2018-05-14T00:41:49.876Z,13.40
2018-05-14T00:43:53.246Z,13.30
2018-05-14T00:45:56.626Z,13.40
2018-05-14T00:47:59.922Z,13.30
2018-05-14T00:50:03.283Z,13.30
2018-05-14T00:52:07.398Z,13.40
2018-05-14T00:54:10.738Z,13.40
2018-05-14T00:56:14.047Z,13.40
2018-05-14T00:58:17.396Z,13.40
2018-05-14T01:00:20.722Z,13.40
2018-05-14T01:02:24.063Z,13.40
2018-05-14T01:04:27.445Z,13.30
2018-05-14T01:06:31.632Z,13.30
2018-05-14T01:08:34.935Z,13.30
2018-05-14T01:10:39.061Z,13.40
2018-05-14T01:12:43.871Z,13.40
2018-05-14T01:14:47.949Z,13.30
2018-05-14T01:16:52.114Z,13.40
2018-05-14T01:18:55.460Z,13.40
2018-05-14T01:20:58.762Z,13.40
2018-05-14T01:23:02.245Z,13.40
2018-05-14T01:25:05.632Z,13.40
2018-05-14T01:27:09.529Z,13.40
2018-05-14T01:29:12.898Z,13.40
2018-05-14T01:31:16.240Z,13.50
2018-05-14T01:33:19.681Z,13.60
2018-05-14T01:35:23.276Z,13.60
2018-05-14T01:37:26.582Z,13.70
2018-05-14T01:39:30.690Z,13.60
2018-05-14T01:41:34.104Z,13.60
2018-05-14T01:43:37.426Z,13.60
2018-05-14T01:45:41.003Z,13.60
2018-05-14T01:47:44.429Z,13.60
2018-05-14T01:49:48.596Z,13.60
2018-05-14T01:51:52.712Z,13.60
2018-05-14T01:53:56.015Z,13.60
2018-05-14T01:55:59.369Z,13.60
2018-05-14T01:58:02.669Z,13.70
2018-05-14T02:00:06.792Z,13.70
2018-05-14T02:02:10.122Z,13.70
2018-05-14T02:04:14.228Z,13.70
2018-05-14T02:06:18.304Z,13.80
2018-05-14T02:08:21.667Z,13.80
2018-05-14T02:10:24.977Z,13.90
2018-05-14T02:12:28.376Z,13.90
2018-05-14T02:14:32.576Z,13.90
2018-05-14T02:16:35.933Z,13.80
2018-05-14T02:18:39.249Z,13.80
2018-05-14T02:20:42.609Z,13.90
2018-05-14T02:22:46.727Z,14.00
2018-05-14T02:24:50.921Z,14.00
2018-05-14T02:26:54.251Z,14.00
2018-05-14T02:28:57.607Z,13.90
2018-05-14T02:31:01.018Z,13.90
2018-05-14T02:33:04.403Z,13.90
2018-05-14T02:35:07.748Z,13.90
2018-05-14T02:37:11.172Z,14.00
2018-05-14T02:39:15.291Z,14.00
2018-05-14T02:41:18.595Z,13.90
2018-05-14T02:43:22.013Z,13.90
2018-05-14T02:45:25.315Z,13.90
2018-05-14T02:47:29.441Z,14.00
2018-05-14T02:49:32.752Z,14.00
2018-05-14T02:51:36.066Z,14.00
2018-05-14T02:53:40.203Z,14.10
2018-05-14T02:55:43.548Z,14.00
2018-05-14T02:57:46.950Z,14.00
2018-05-14T02:59:51.077Z,14.10
2018-05-14T03:01:55.208Z,14.00
2018-05-14T03:03:58.553Z,14.00
2018-05-14T03:06:01.882Z,13.90
2018-05-14T03:08:05.231Z,13.90
2018-05-14T03:10:08.568Z,13.90
2018-05-14T03:12:12.011Z,14.00
2018-05-14T03:14:17.165Z,13.90
2018-05-14T03:16:20.536Z,13.80
2018-05-14T03:18:23.878Z,13.80
2018-05-14T03:20:27.211Z,13.80
2018-05-14T03:22:30.537Z,13.80
2018-05-14T03:24:33.922Z,13.90
2018-05-14T03:26:37.265Z,13.90
2018-05-14T03:28:40.587Z,14.00
2018-05-14T03:30:44.689Z,13.80
2018-05-14T03:32:48.054Z,13.80
2018-05-14T03:34:51.343Z,13.80
2018-05-14T03:36:54.729Z,13.80
2018-05-14T03:38:58.113Z,13.70
2018-05-14T03:41:01.489Z,13.70
2018-05-14T03:43:05.588Z,13.80
2018-05-14T03:45:08.943Z,13.70
2018-05-14T03:47:12.256Z,13.80
2018-05-14T03:49:15.613Z,13.70
2018-05-14T03:51:19.019Z,13.80
2018-05-14T03:53:22.360Z,13.70
2018-05-14T03:55:26.452Z,13.80
2018-05-14T03:57:29.819Z,13.70
2018-05-14T03:59:50.818Z,13.70
2018-05-14T04:04:58.875Z,13.80
2018-05-14T04:07:02.215Z,13.70
2018-05-14T04:09:06.405Z,13.80
2018-05-14T04:11:10.895Z,13.80
2018-05-14T04:13:14.244Z,13.80
2018-05-14T04:15:17.591Z,13.80
2018-05-14T04:17:21.050Z,13.70
2018-05-14T04:19:24.436Z,13.70
2018-05-14T04:21:28.033Z,13.70
2018-05-14T04:23:31.406Z,13.70
2018-05-14T04:27:48.836Z,13.70
2018-05-14T04:29:52.252Z,13.80
2018-05-14T04:31:55.620Z,13.90
2018-05-14T04:33:58.957Z,13.80
2018-05-14T04:36:02.330Z,13.90
2018-05-14T04:38:05.684Z,13.80
2018-05-14T04:40:09.778Z,13.80
2018-05-14T04:42:13.240Z,13.70
2018-05-14T04:44:16.610Z,13.90
2018-05-14T04:46:19.948Z,13.90
2018-05-14T04:48:23.317Z,13.90
2018-05-14T04:50:26.739Z,13.90
2018-05-14T04:52:31.151Z,13.90
2018-05-14T04:54:34.601Z,13.90
2018-05-14T04:56:37.972Z,13.90
2018-05-14T04:58:41.353Z,13.90
2018-05-14T05:00:45.470Z,13.90
2018-05-14T05:02:48.843Z,13.90
2018-05-14T05:04:52.584Z,13.80
2018-05-14T05:06:56.448Z,13.90
2018-05-14T05:09:00.527Z,13.90
2018-05-14T05:11:04.635Z,13.90
2018-05-14T05:13:08.017Z,14.00
2018-05-14T05:15:11.455Z,14.10
2018-05-14T05:17:15.137Z,14.00
2018-05-14T05:19:18.433Z,14.10
2018-05-14T05:21:22.836Z,14.10
2018-05-14T05:23:27.676Z,14.20
2018-05-14T05:25:31.410Z,14.10
2018-05-14T05:27:34.758Z,14.10
2018-05-14T05:29:38.185Z,14.10
2018-05-14T05:31:42.276Z,14.20
2018-05-14T05:33:45.933Z,14.20
2018-05-14T05:35:49.320Z,14.40
2018-05-14T05:37:52.700Z,14.40
2018-05-14T05:39:56.084Z,14.40
2018-05-14T05:42:00.204Z,14.30
2018-05-14T05:44:03.652Z,14.40
2018-05-14T05:46:07.028Z,14.30
2018-05-14T05:48:10.361Z,14.40
2018-05-14T05:50:13.830Z,14.40
2018-05-14T05:52:17.973Z,14.40
2018-05-14T05:54:21.611Z,14.30
2018-05-14T05:56:25.179Z,14.40
2018-05-14T05:58:29.425Z,14.40
2018-05-14T06:00:32.862Z,14.40
2018-05-14T06:02:36.306Z,14.50
2018-05-14T06:04:39.649Z,14.50
2018-05-14T06:06:43.052Z,14.50
2018-05-14T06:08:47.295Z,14.50
2018-05-14T06:10:50.785Z,14.40
2018-05-14T06:12:54.279Z,14.50
2018-05-14T06:14:57.837Z,14.50
2018-05-14T06:17:01.339Z,14.50
2018-05-14T06:19:04.788Z,14.60
2018-05-14T06:21:08.167Z,14.50
2018-05-14T06:23:12.326Z,14.60
2018-05-14T06:25:18.166Z,14.60
2018-05-14T06:27:21.580Z,14.60
2018-05-14T06:29:25.012Z,14.70
2018-05-14T06:31:28.408Z,14.80
2018-05-14T06:33:31.981Z,14.80
2018-05-14T06:35:36.264Z,15.00
2018-05-14T06:37:39.680Z,15.00
2018-05-14T06:39:43.176Z,14.90
2018-05-14T06:41:46.660Z,14.90
2018-05-14T06:43:49.988Z,15.00
2018-05-14T06:45:53.435Z,15.00
2018-05-14T06:47:56.818Z,15.00
2018-05-14T06:50:00.264Z,15.10
2018-05-14T06:52:03.633Z,14.90
2018-05-14T06:54:07.799Z,15.10
2018-05-14T06:56:11.594Z,15.10
2018-05-14T06:58:15.688Z,15.20
2018-05-14T07:00:19.001Z,15.20
2018-05-14T07:02:22.381Z,15.20
2018-05-14T07:04:25.788Z,15.20
2018-05-14T07:06:29.156Z,15.40
2018-05-14T07:08:32.458Z,15.30
2018-05-14T07:10:35.980Z,15.30
2018-05-14T07:12:39.334Z,15.20
2018-05-14T07:14:42.735Z,15.30
2018-05-14T07:16:46.153Z,15.50
2018-05-14T07:18:50.365Z,15.70
2018-05-14T07:20:54.059Z,15.70
2018-05-14T07:22:57.454Z,15.70
2018-05-14T07:25:00.980Z,15.80
2018-05-14T07:27:04.610Z,16.10
2018-05-14T07:31:24.079Z,16.10
2018-05-14T07:33:27.407Z,16.00
2018-05-14T07:35:31.705Z,16.10
2018-05-14T07:37:35.849Z,16.20
2018-05-14T07:39:39.289Z,16.20
2018-05-14T07:41:42.626Z,16.20
2018-05-14T07:43:46.014Z,16.40
2018-05-14T07:45:50.092Z,16.50
2018-05-14T07:48:11.096Z,16.50
2018-05-14T07:50:14.436Z,16.50
2018-05-14T07:54:28.138Z,16.30
2018-05-14T07:56:31.713Z,16.30
2018-05-14T07:58:35.898Z,16.50
2018-05-14T08:00:40.067Z,16.80
2018-05-14T08:02:43.529Z,16.80
2018-05-14T08:04:46.906Z,16.90
2018-05-14T08:06:50.379Z,17.00
2018-05-14T08:08:53.931Z,17.10
2018-05-14T08:10:57.283Z,17.10
2018-05-14T08:13:00.815Z,17.20
2018-05-14T08:15:04.345Z,17.20
2018-05-14T08:17:07.703Z,17.40
2018-05-14T08:19:11.087Z,17.50
2018-05-14T08:21:14.509Z,17.30
2018-05-14T08:23:18.666Z,17.30
2018-05-14T08:25:22.130Z,17.30
2018-05-14T08:27:25.553Z,17.40
2018-05-14T08:29:28.932Z,17.50
2018-05-14T08:31:32.354Z,17.60
2018-05-14T08:33:35.817Z,17.60
2018-05-14T08:35:39.227Z,17.50
2018-05-14T08:37:42.569Z,17.60
2018-05-14T08:39:46.774Z,17.90
2018-05-14T08:41:50.164Z,17.90
2018-05-14T08:43:53.545Z,17.90
2018-05-14T08:45:56.999Z,18.10
2018-05-14T08:48:00.475Z,18.10
2018-05-14T08:50:04.699Z,18.00
2018-05-14T08:52:08.072Z,17.90
2018-05-14T08:54:12.320Z,18.10
2018-05-14T08:56:15.607Z,18.10
2018-05-14T08:58:18.974Z,18.20
2018-05-14T09:00:22.417Z,18.40
2018-05-14T09:02:25.814Z,18.50
2018-05-14T09:04:29.201Z,18.70
2018-05-14T09:06:32.612Z,18.70
2018-05-14T09:08:35.994Z,18.70
2018-05-14T09:10:39.522Z,18.70
2018-05-14T09:12:43.787Z,18.90
2018-05-14T09:14:47.521Z,18.90
2018-05-14T09:16:51.982Z,19.00
2018-05-14T09:18:55.456Z,18.90
2018-05-14T09:20:59.675Z,19.00
2018-05-14T09:23:03.813Z,18.80
2018-05-14T09:25:07.291Z,18.80
2018-05-14T09:27:10.838Z,18.70
2018-05-14T09:29:14.519Z,18.70
2018-05-14T09:31:18.055Z,18.70
2018-05-14T09:33:21.400Z,18.90
2018-05-14T09:35:24.809Z,19.00
2018-05-14T09:37:28.196Z,19.20
2018-05-14T09:39:31.629Z,19.10
2018-05-14T09:41:35.036Z,19.30
2018-05-14T09:43:39.212Z,19.40
2018-05-14T09:45:42.657Z,19.40
2018-05-14T09:47:46.007Z,19.40
2018-05-14T09:49:49.318Z,19.60
2018-05-14T09:51:52.724Z,19.60
2018-05-14T09:53:56.184Z,19.50
2018-05-14T09:55:59.768Z,19.60
2018-05-14T09:58:03.319Z,19.70
2018-05-14T10:00:06.729Z,19.70
2018-05-14T10:02:10.123Z,19.80
2018-05-14T10:04:13.574Z,19.80
2018-05-14T10:06:17.789Z,19.90
2018-05-14T10:08:21.386Z,20.00
2018-05-14T10:10:24.738Z,20.10
2018-05-14T10:12:28.205Z,20.10
2018-05-14T10:14:32.548Z,20.20
2018-05-14T10:16:36.255Z,20.20
2018-05-14T10:18:39.810Z,20.40
2018-05-14T10:20:43.332Z,20.30
2018-05-14T10:22:46.748Z,20.20
2018-05-14T10:24:53.243Z,20.30
2018-05-14T10:26:56.603Z,20.30
2018-05-14T10:29:00.029Z,20.40
2018-05-14T10:31:03.917Z,20.40
2018-05-14T10:33:07.286Z,20.50
2018-05-14T10:35:10.672Z,20.60
2018-05-14T10:37:14.872Z,20.80
2018-05-14T10:39:18.266Z,20.70
2018-05-14T10:41:21.630Z,20.90
2018-05-14T10:43:25.868Z,20.90
2018-05-14T10:45:29.247Z,20.90
2018-05-14T10:47:32.707Z,21.10
2018-05-14T10:49:36.200Z,21.10
2018-05-14T10:51:39.818Z,21.10
2018-05-14T10:53:43.259Z,20.90
2018-05-14T10:55:46.628Z,21.00
2018-05-14T10:57:50.041Z,21.10
2018-05-14T10:59:53.446Z,21.10
2018-05-14T11:01:56.894Z,21.20
2018-05-14T11:04:00.905Z,21.40
2018-05-14T11:06:05.555Z,21.50
2018-05-14T11:08:09.476Z,21.50
2018-05-14T11:10:13.035Z,21.50
2018-05-14T11:12:17.264Z,21.60
2018-05-14T11:14:20.875Z,21.60
2018-05-14T11:16:24.344Z,21.60
2018-05-14T11:18:27.852Z,21.70
2018-05-14T11:20:31.298Z,21.80
2018-05-14T11:22:36.166Z,21.70
2018-05-14T11:24:39.549Z,21.90
2018-05-14T11:26:43.025Z,22.10
2018-05-14T11:28:46.441Z,22.10
2018-05-14T11:30:49.859Z,22.20
2018-05-14T11:32:53.433Z,22.40
2018-05-14T11:34:56.783Z,22.50
2018-05-14T11:37:00.211Z,22.30
2018-05-14T11:39:06.634Z,22.30
2018-05-14T11:41:09.958Z,22.40
2018-05-14T11:45:37.095Z,22.50
2018-05-14T11:47:40.515Z,22.60
2018-05-14T11:49:43.956Z,22.70
2018-05-14T11:51:47.387Z,22.70
2018-05-14T11:53:50.738Z,22.90
2018-05-14T11:55:54.133Z,22.90
2018-05-14T11:57:57.576Z,23.10
2018-05-14T12:00:01.804Z,23.10
2018-05-14T12:02:05.244Z,23.10
2018-05-14T12:04:09.477Z,23.10
2018-05-14T12:06:13.009Z,23.10
2018-05-14T12:08:16.444Z,23.10
2018-05-14T12:10:19.994Z,23.30
2018-05-14T12:12:23.528Z,23.40
2018-05-14T12:14:27.714Z,23.50
2018-05-14T12:16:31.148Z,23.40
2018-05-14T12:18:34.508Z,23.50
2018-05-14T12:20:38.077Z,23.60
2018-05-14T12:22:41.676Z,23.60
2018-05-14T12:24:45.981Z,23.80
2018-05-14T12:26:49.373Z,23.80
2018-05-14T12:28:52.973Z,23.80
2018-05-14T12:30:56.789Z,23.80
2018-05-14T12:33:01.028Z,24.00
2018-05-14T12:35:04.515Z,24.00
2018-05-14T12:37:08.295Z,24.20
2018-05-14T12:39:11.733Z,24.10
2018-05-14T12:41:15.145Z,24.30
2018-05-14T12:43:18.535Z,24.40
2018-05-14T12:45:21.960Z,24.30
2018-05-14T12:47:25.393Z,24.40
2018-05-14T12:49:28.811Z,24.50
2018-05-14T12:51:32.384Z,24.50
2018-05-14T12:53:35.809Z,24.60
2018-05-14T12:55:39.958Z,24.80
2018-05-14T12:57:43.386Z,24.80
2018-05-14T12:59:46.940Z,24.80
2018-05-14T13:01:50.546Z,24.60
2018-05-14T13:03:53.944Z,24.70
2018-05-14T13:05:57.629Z,24.60
2018-05-14T13:08:01.257Z,24.70
2018-05-14T13:10:05.144Z,24.80
2018-05-14T13:12:08.767Z,24.50
2018-05-14T13:14:12.312Z,24.60
2018-05-14T13:16:16.507Z,24.70
2018-05-14T13:18:20.463Z,24.70
2018-05-14T13:20:23.893Z,24.70
2018-05-14T13:22:27.521Z,24.80
2018-05-14T13:24:31.709Z,24.90
2018-05-14T13:26:35.098Z,24.90
2018-05-14T13:28:38.654Z,25.00
2018-05-14T13:30:42.019Z,25.00
2018-05-14T13:32:46.231Z,25.20
2018-05-14T13:34:50.547Z,25.30
2018-05-14T13:36:54.735Z,25.30
2018-05-14T13:38:58.422Z,25.20
2018-05-14T13:41:01.853Z,25.30
2018-05-14T13:43:06.039Z,25.40
2018-05-14T13:45:09.410Z,25.40
2018-05-14T13:47:12.799Z,25.60
2018-05-14T13:49:16.216Z,25.60
2018-05-14T13:51:19.592Z,25.60
2018-05-14T13:53:22.981Z,25.60
2018-05-14T13:55:26.382Z,25.50
2018-05-14T13:57:29.878Z,25.50
2018-05-14T13:59:33.210Z,25.60
2018-05-14T14:01:36.752Z,25.60
2018-05-14T14:03:40.135Z,25.50
2018-05-14T14:05:43.950Z,25.60
2018-05-14T14:07:47.385Z,25.70
2018-05-14T14:09:50.826Z,25.60
2018-05-14T14:11:54.225Z,25.50
2018-05-14T14:13:57.580Z,25.40
2018-05-14T14:16:01.759Z,25.60
2018-05-14T14:18:05.188Z,25.50
2018-05-14T14:20:08.597Z,25.60
2018-05-14T14:22:11.942Z,25.80
2018-05-14T14:24:15.400Z,25.80
2018-05-14T14:26:18.720Z,25.90
2018-05-14T14:28:22.146Z,26.00
2018-05-14T14:30:27.746Z,26.00
2018-05-14T14:32:31.157Z,26.00
2018-05-14T14:34:34.536Z,26.10
2018-05-14T14:36:37.977Z,26.10
2018-05-14T14:38:42.159Z,26.00
2018-05-14T14:40:45.632Z,26.00
2018-05-14T14:42:49.147Z,26.10
2018-05-14T14:44:52.810Z,26.20
2018-05-14T14:46:56.304Z,26.30
2018-05-14T14:48:59.673Z,26.30
2018-05-14T14:51:03.008Z,26.20
2018-05-14T14:53:06.383Z,26.30
2018-05-14T14:55:09.890Z,26.30
2018-05-14T14:57:13.420Z,26.40
2018-05-14T14:59:16.848Z,26.40
2018-05-14T15:01:20.222Z,26.40
2018-05-14T15:03:23.649Z,26.50
2018-05-14T15:05:27.065Z,26.50
2018-05-14T15:07:30.462Z,26.60
2018-05-14T15:09:33.862Z,26.60
2018-05-14T15:11:37.962Z,26.60
2018-05-14T15:13:41.893Z,26.60
2018-05-14T15:15:45.471Z,26.60
2018-05-14T15:17:48.929Z,26.70
2018-05-14T15:19:52.422Z,26.70
2018-05-14T15:21:55.759Z,26.80
2018-05-14T15:23:59.231Z,26.80
2018-05-14T15:26:02.697Z,26.80
2018-05-14T15:28:06.292Z,26.70
2018-05-14T15:30:09.695Z,26.70
2018-05-14T15:32:14.577Z,26.90
2018-05-14T15:34:17.951Z,26.80
2018-05-14T15:36:21.433Z,26.90
2018-05-14T15:38:24.865Z,27.00
2018-05-14T15:40:29.053Z,27.10
2018-05-14T15:42:32.498Z,27.10
2018-05-14T15:44:36.659Z,27.30
2018-05-14T15:46:40.248Z,27.20
2018-05-14T15:48:43.689Z,27.20
2018-05-14T15:50:48.048Z,27.30
2018-05-14T15:52:51.450Z,27.30
2018-05-14T15:54:54.816Z,27.30
2018-05-14T15:56:58.196Z,27.40
2018-05-14T15:59:01.547Z,27.50
2018-05-14T16:01:05.783Z,27.50
2018-05-14T16:03:09.240Z,27.50
2018-05-14T16:05:12.692Z,27.60
2018-05-14T16:07:16.057Z,27.60
2018-05-14T16:09:19.410Z,27.70
2018-05-14T16:11:22.829Z,27.70
2018-05-14T16:13:26.456Z,27.80
2018-05-14T16:15:30.106Z,27.60
2018-05-14T16:17:33.583Z,27.60
2018-05-14T16:19:36.893Z,27.50
2018-05-14T16:21:40.339Z,27.50
2018-05-14T16:23:44.626Z,27.30
2018-05-14T16:25:48.150Z,27.30
2018-05-14T16:27:53.173Z,27.40
2018-05-14T16:32:13.344Z,27.30
2018-05-14T16:34:18.377Z,27.40
2018-05-14T16:36:23.603Z,27.40
2018-05-14T16:38:31.715Z,27.50
2018-05-14T16:40:36.637Z,27.50
2018-05-14T16:44:50.430Z,27.60
2018-05-14T16:46:54.307Z,27.70
2018-05-14T16:49:00.472Z,27.80
2018-05-14T16:51:08.808Z,27.80
2018-05-14T16:53:12.932Z,28.00
2018-05-14T16:55:18.163Z,28.10
2018-05-14T16:57:21.865Z,28.30
2018-05-14T16:59:25.358Z,28.40
2018-05-14T17:01:31.235Z,28.50
2018-05-14T17:03:36.965Z,28.40
2018-05-14T17:07:55.058Z,28.40
2018-05-14T17:09:59.897Z,28.30
2018-05-14T17:12:03.882Z,28.60
2018-05-14T17:14:08.966Z,28.60
2018-05-14T17:16:14.121Z,28.50
2018-05-14T18:53:57.789Z,24.00
2018-05-14T18:58:38.697Z,23.90
2018-05-14T19:08:53.435Z,23.50
2018-05-14T19:13:53.336Z,23.30
2018-05-14T19:18:50.218Z,23.20
2018-05-14T19:20:56.333Z,23.10
2018-05-14T19:23:07.493Z,23.00
2018-05-14T19:25:13.613Z,23.00
2018-05-14T19:27:19.643Z,22.90
2018-05-14T19:29:33.025Z,23.00
2018-05-14T19:31:37.786Z,22.70
2018-05-14T20:26:06.932Z,21.70
2018-05-14T20:31:02.076Z,21.60
2018-05-14T20:35:21.635Z,21.60
2018-05-14T20:42:10.314Z,21.50
2018-05-14T20:47:00.533Z,21.40
2018-05-14T20:49:09.066Z,21.40
2018-05-14T20:51:12.846Z,21.40
2018-05-14T20:55:40.914Z,21.30
2018-05-14T20:57:45.279Z,21.30
2018-05-14T20:59:53.505Z,21.30
2018-05-14T21:04:18.868Z,21.10
2018-05-14T21:06:23.949Z,21.10
2018-05-14T21:18:30.206Z,20.80
2018-05-14T21:20:34.829Z,20.70
2018-05-14T21:22:38.824Z,20.70
2018-05-14T21:24:42.210Z,20.60
2018-05-14T21:26:47.063Z,20.60
2018-05-14T21:28:51.316Z,20.60
2018-05-14T21:30:54.794Z,20.60
2018-05-14T21:32:58.241Z,20.50
2018-05-14T21:35:01.628Z,20.50
2018-05-14T21:37:08.932Z,20.50
2018-05-14T21:39:12.354Z,20.40
2018-05-14T21:41:15.849Z,20.50
2018-05-14T21:43:19.726Z,20.40
2018-05-14T21:45:23.268Z,20.40
2018-05-14T21:47:26.636Z,20.40
2018-05-14T21:49:30.774Z,20.30
2018-05-14T21:51:34.296Z,20.30
2018-05-14T21:53:37.732Z,20.40
2018-05-14T21:55:41.954Z,20.30
2018-05-14T21:57:47.296Z,20.30
2018-05-14T21:59:51.426Z,20.10
2018-05-14T22:01:54.961Z,20.10
2018-05-14T22:03:58.397Z,20.10
2018-05-14T22:06:03.725Z,20.20
2018-05-14T22:08:07.064Z,20.20
2018-05-14T22:10:10.471Z,20.10
2018-05-14T22:12:13.993Z,20.00
2018-05-14T22:14:17.380Z,20.00
2018-05-14T22:16:22.051Z,19.90
2018-05-14T22:18:25.373Z,19.90
2018-05-14T22:20:29.155Z,19.80
2018-05-14T22:22:32.572Z,19.80
2018-05-14T22:24:35.960Z,19.80
2018-05-14T22:26:39.319Z,19.80
2018-05-14T22:28:42.771Z,19.80
2018-05-14T22:30:46.155Z,19.80
2018-05-14T22:32:49.521Z,19.80
2018-05-14T22:34:52.941Z,19.80
2018-05-14T22:36:56.349Z,19.80
2018-05-14T22:38:59.778Z,19.80
2018-05-14T22:41:04.036Z,19.70
2018-05-14T22:43:07.442Z,19.60
2018-05-14T22:45:10.817Z,19.70
2018-05-14T22:47:14.401Z,19.60
2018-05-14T22:49:19.107Z,19.50
2018-05-14T22:51:22.466Z,19.50
2018-05-14T22:53:25.825Z,19.50
2018-05-14T22:55:29.153Z,19.40
2018-05-14T22:57:32.536Z,19.30
2018-05-14T22:59:35.934Z,19.30
2018-05-14T23:01:39.296Z,19.20
2018-05-14T23:03:43.387Z,19.10
2018-05-14T23:05:46.746Z,19.10
2018-05-14T23:07:50.857Z,19.00
2018-05-14T23:09:55.032Z,18.90
2018-05-14T23:11:58.395Z,18.90
2018-05-14T23:14:01.835Z,18.90
2018-05-14T23:16:05.296Z,18.90
2018-05-14T23:18:10.140Z,18.80
2018-05-14T23:20:14.404Z,18.80
2018-05-14T23:22:18.556Z,18.70
2018-05-14T23:24:23.099Z,18.70
2018-05-14T23:26:27.230Z,18.60
2018-05-14T23:28:31.426Z,18.50
2018-05-14T23:30:34.823Z,18.50
2018-05-14T23:32:38.226Z,18.50
2018-05-14T23:34:41.597Z,18.50
2018-05-14T23:36:45.068Z,18.40
2018-05-14T23:38:48.497Z,18.40
2018-05-14T23:40:51.995Z,18.30
2018-05-14T23:42:55.783Z,18.30
2018-05-14T23:44:59.952Z,18.20
2018-05-14T23:47:03.290Z,18.20
2018-05-14T23:49:06.764Z,18.20
2018-05-14T23:51:10.605Z,18.20
2018-05-14T23:53:14.777Z,18.10
2018-05-14T23:55:18.183Z,18.10
2018-05-14T23:57:21.556Z,18.10
2018-05-14T23:59:24.908Z,18.00
